Time;durP1;ratioP1;P1;durP2;ratioP2;P2;SDS_P1;SDS_P2;PMS_P1;PMS_P2;Temp;Humidity;BMP_temperature;BMP_pressure;BME280_temperature;BME280_humidity;BME280_pressure;Samples;Min_cycle;Max_cycle;Signal;HPM_P1;HPM_P2
2021/08/14 19:42:19;;;;;;;12.68;7.07;;;;;;;19.64;66.24;99728.72;5134553;27;20371;-58
2021/08/14 19:44:45;;;;;;;14.15;7.20;;;;;;;19.68;67.51;99725.75;5146713;27;20050;-59
2021/08/14 19:47:11;;;;;;;14.02;6.80;;;;;;;19.73;68.41;99728.09;5145976;27;21846;-61
2021/08/14 19:49:37;;;;;;;16.63;6.97;;;;;;;19.73;69.38;99728.91;5138798;27;20047;-60
2021/08/14 19:52:03;;;;;;;14.32;7.55;;;;;;;19.74;70.17;99729.75;5130987;27;20041;-59
2021/08/14 19:54:34;;;;;;;14.32;6.88;;;;;;;19.68;70.28;99717.03;5131362;27;20051;-60
2021/08/14 19:57:01;;;;;;;17.02;7.38;;;;;;;19.73;70.07;99721.00;5129620;27;20179;-61
2021/08/14 19:59:27;;;;;;;17.15;7.35;;;;;;;19.77;70.09;99726.91;5136416;27;20050;-61
2021/08/14 20:01:55;;;;;;;13.50;7.65;;;;;;;19.84;69.81;99729.00;5132038;27;20047;-60
2021/08/14 20:04:21;;;;;;;13.35;7.65;;;;;;;19.85;69.83;99735.13;5127242;27;20043;-61
2021/08/14 20:06:47;;;;;;;15.82;7.35;;;;;;;19.87;69.18;99735.88;5111602;27;20050;-60
2021/08/14 20:09:13;;;;;;;13.98;6.80;;;;;;;19.87;68.75;99731.44;5133588;27;20092;-61
2021/08/14 20:11:38;;;;;;;12.48;6.75;;;;;;;19.89;68.61;99732.16;5133201;27;20421;-61
2021/08/14 20:14:04;;;;;;;13.20;6.78;;;;;;;19.75;68.48;99708.56;5115059;27;20050;-59
2021/08/14 20:16:30;;;;;;;14.73;7.60;;;;;;;19.90;68.80;99735.63;5132486;27;20043;-60
2021/08/14 20:18:56;;;;;;;10.52;6.55;;;;;;;19.89;68.51;99737.44;5130849;27;21968;-59
2021/08/14 20:21:22;;;;;;;13.50;7.57;;;;;;;19.88;68.12;99733.13;5113781;27;20652;-60
2021/08/14 20:23:47;;;;;;;12.52;7.35;;;;;;;19.89;67.66;99733.94;5109317;27;20123;-61
2021/08/14 20:26:13;;;;;;;20.55;6.95;;;;;;;19.89;67.76;99732.16;5127389;27;20116;-60
2021/08/14 20:28:39;;;;;;;12.13;6.32;;;;;;;19.89;67.72;99732.16;5115810;27;20047;-60
2021/08/14 20:31:05;;;;;;;12.07;7.22;;;;;;;19.68;67.76;99694.09;5115282;27;20047;-60
2021/08/14 20:33:33;;;;;;;12.23;7.25;;;;;;;19.86;67.75;99728.91;5128494;27;20085;-60
2021/08/14 20:35:59;;;;;;;14.48;7.68;;;;;;;19.83;67.98;99721.22;5130741;27;20591;-60
2021/08/14 20:38:25;;;;;;;13.50;8.10;;;;;;;19.81;67.99;99716.03;5129954;27;20047;-60
2021/08/14 20:40:51;;;;;;;14.95;8.20;;;;;;;19.79;67.89;99717.94;5115444;27;20055;-59
2021/08/14 20:43:17;;;;;;;13.75;6.85;;;;;;;19.77;68.40;99719.00;5134133;27;20075;-59
2021/08/14 20:45:43;;;;;;;17.67;8.07;;;;;;;19.75;68.20;99721.75;5139570;27;20081;-59
2021/08/14 20:48:09;;;;;;;13.07;7.88;;;;;;;19.73;68.30;99718.38;5139056;27;20088;-60
2021/08/14 20:50:35;;;;;;;16.30;7.90;;;;;;;19.71;68.65;99714.16;5108475;28;20139;-60
2021/08/14 20:53:01;;;;;;;17.52;8.20;;;;;;;19.68;68.98;99717.84;5106506;27;20047;-60
2021/08/14 20:55:30;;;;;;;13.32;7.45;;;;;;;19.66;68.83;99708.38;5087387;27;20043;-59
2021/08/14 20:57:56;;;;;;;18.50;8.05;;;;;;;19.63;69.01;99721.75;5087633;27;20134;-59
2021/08/14 21:00:22;;;;;;;13.50;6.90;;;;;;;19.59;68.88;99710.59;5102810;27;20063;-60
2021/08/14 21:02:47;;;;;;;16.35;7.25;;;;;;;19.57;68.88;99707.25;5125716;27;20096;-58
2021/08/14 21:05:13;;;;;;;16.17;7.35;;;;;;;19.45;68.94;99692.28;5122943;27;20043;-59
2021/08/14 21:07:39;;;;;;;11.45;7.47;;;;;;;19.52;69.28;99704.09;5122584;27;20072;-60
2021/08/14 21:10:06;;;;;;;10.93;6.78;;;;;;;19.34;69.09;99682.47;5121919;27;20562;-59
2021/08/14 21:12:32;;;;;;;11.95;7.18;;;;;;;19.44;69.93;99701.09;5105885;27;20035;-60
2021/08/14 21:14:58;;;;;;;14.93;7.82;;;;;;;19.40;69.72;99699.63;5122521;27;20046;-60
2021/08/14 21:17:24;;;;;;;12.60;5.90;;;;;;;19.39;69.11;99700.59;5120417;27;20078;-59
2021/08/14 21:19:50;;;;;;;11.18;5.60;;;;;;;19.39;68.24;99697.94;5121165;27;20072;-60
2021/08/14 21:22:16;;;;;;;10.82;5.95;;;;;;;19.36;67.73;99696.38;5088177;27;20040;-58
2021/08/14 21:24:42;;;;;;;11.95;6.78;;;;;;;19.37;67.43;99699.84;5123740;27;20044;-61
2021/08/14 21:27:07;;;;;;;8.82;6.15;;;;;;;19.35;67.54;99697.34;5121222;27;20470;-60
2021/08/14 21:29:34;;;;;;;9.80;5.43;;;;;;;19.34;67.54;99693.00;5123524;27;20049;-59
2021/08/14 21:31:59;;;;;;;14.55;6.95;;;;;;;19.32;67.78;99691.41;5122227;27;20106;-59
2021/08/14 21:34:25;;;;;;;10.43;6.25;;;;;;;19.30;68.48;99690.69;5125521;27;20120;-60
2021/08/14 21:36:51;;;;;;;12.15;6.72;;;;;;;19.28;67.73;99690.78;5112301;27;20043;-59
2021/08/14 21:39:17;;;;;;;17.25;8.23;;;;;;;19.27;68.49;99699.63;5112822;27;20051;-59
2021/08/14 21:41:43;;;;;;;12.57;6.53;;;;;;;19.25;69.10;99698.94;5093552;28;20051;-59
2021/08/14 21:44:09;;;;;;;11.27;5.82;;;;;;;19.21;68.88;99689.53;5100014;28;20071;-59
2021/08/14 21:46:35;;;;;;;12.52;5.75;;;;;;;19.24;67.90;99691.97;5112253;28;20074;-59
2021/08/14 21:49:00;;;;;;;11.02;5.30;;;;;;;19.15;67.53;99673.31;5127690;27;20043;-59
2021/08/14 21:51:26;;;;;;;10.10;5.22;;;;;;;19.24;67.48;99689.31;5127500;27;20031;-60
2021/08/14 21:53:52;;;;;;;11.23;5.70;;;;;;;19.13;67.56;99668.13;5123678;27;20039;-60
2021/08/14 21:56:17;;;;;;;10.38;5.57;;;;;;;19.22;67.87;99695.63;5115593;27;20039;-60
2021/08/14 21:58:43;;;;;;;11.32;5.80;;;;;;;19.18;68.36;99687.13;5121922;27;20043;-59
2021/08/14 22:01:09;;;;;;;9.18;5.93;;;;;;;19.17;68.30;99695.97;5087164;27;20068;-60
2021/08/14 22:03:35;;;;;;;8.98;5.82;;;;;;;19.15;68.51;99695.25;5111616;28;20035;-60
2021/08/14 22:06:01;;;;;;;12.35;6.03;;;;;;;19.14;68.88;99690.06;5108983;27;20044;-60
2021/08/14 22:08:27;;;;;;;9.35;5.68;;;;;;;19.13;68.41;99699.75;5123459;27;20582;-60
2021/08/14 22:10:53;;;;;;;11.57;5.75;;;;;;;19.13;68.29;99701.56;5132236;27;20035;-60
2021/08/14 22:13:19;;;;;;;12.55;5.75;;;;;;;19.11;68.53;99687.63;5116850;27;20043;-61
2021/08/14 22:15:45;;;;;;;10.77;6.53;;;;;;;19.09;68.78;99695.66;5113822;27;20510;-60
2021/08/14 22:18:11;;;;;;;10.10;5.95;;;;;;;19.07;69.61;99696.72;5114288;27;20047;-60
2021/08/14 22:20:39;;;;;;;11.10;6.18;;;;;;;18.99;70.64;99687.56;5111352;28;20093;-60
2021/08/14 22:23:05;;;;;;;12.15;6.55;;;;;;;18.93;71.47;99695.88;5112608;27;20046;-59
2021/08/14 22:25:31;;;;;;;14.35;6.43;;;;;;;18.92;71.42;99688.06;5116041;27;20055;-59
2021/08/14 22:27:58;;;;;;;11.15;6.28;;;;;;;18.90;71.90;99684.69;5111243;28;20048;-59
2021/08/14 22:30:27;;;;;;;12.13;6.32;;;;;;;18.87;72.38;99683.13;5129629;27;20091;-60
2021/08/14 22:32:53;;;;;;;12.43;6.53;;;;;;;18.88;72.48;99686.59;5129746;27;20031;-60
2021/08/14 22:35:22;;;;;;;10.93;6.22;;;;;;;18.85;72.66;99687.63;5096687;28;20066;-60
2021/08/14 22:38:00;;;;;;;10.57;6.65;;;;;;;18.83;72.38;99691.34;5103224;27;20087;-60
2021/08/14 22:40:37;;;;;;;10.77;5.72;;;;;;;18.84;71.53;99687.75;5129612;27;20070;-60
2021/08/14 22:43:04;;;;;;;11.25;6.03;;;;;;;18.87;70.72;99680.47;5110452;27;20162;-59
2021/08/14 22:45:30;;;;;;;14.02;6.53;;;;;;;18.87;70.56;99679.63;5126076;27;20035;-60
2021/08/14 22:47:57;;;;;;;11.10;6.40;;;;;;;18.88;70.60;99670.78;5129365;27;20080;-60
2021/08/14 22:50:25;;;;;;;12.10;6.28;;;;;;;18.87;70.37;99677.84;5131380;27;20030;-59
2021/08/14 22:52:51;;;;;;;13.32;6.97;;;;;;;18.87;70.26;99677.00;5130671;27;20043;-60
2021/08/14 22:55:17;;;;;;;11.02;6.07;;;;;;;18.84;70.53;99678.03;5101260;28;20054;-61
2021/08/14 22:57:43;;;;;;;12.07;7.07;;;;;;;18.84;70.57;99674.59;5112275;27;20528;-60
2021/08/14 23:00:16;;;;;;;12.02;6.88;;;;;;;18.78;71.88;99675.00;5118717;27;20071;-60
2021/08/14 23:02:43;;;;;;;11.10;6.65;;;;;;;18.74;72.38;99673.50;5124584;27;20031;-60
2021/08/14 23:05:09;;;;;;;10.43;6.22;;;;;;;18.72;72.59;99683.31;5123053;27;20035;-59
2021/08/14 23:07:35;;;;;;;12.57;6.63;;;;;;;18.66;72.96;99681.94;5130886;27;20039;-59
2021/08/14 23:10:03;;;;;;;14.60;6.30;;;;;;;18.56;73.36;99665.91;5125460;27;20093;-59
2021/08/14 23:12:31;;;;;;;12.75;5.97;;;;;;;18.63;72.90;99679.53;5120286;27;20073;-60
2021/08/14 23:14:57;;;;;;;11.52;5.88;;;;;;;18.51;72.06;99656.59;5109875;27;20031;-60
2021/08/14 23:17:23;;;;;;;11.73;6.68;;;;;;;18.67;71.82;99674.88;5100445;28;20045;-60
2021/08/14 23:19:49;;;;;;;12.45;6.97;;;;;;;18.66;72.04;99673.19;5110322;28;20525;-60
2021/08/14 23:22:15;;;;;;;16.58;6.88;;;;;;;18.61;72.71;99666.44;5116550;27;20092;-59
2021/08/14 23:24:40;;;;;;;11.13;6.35;;;;;;;18.60;72.88;99663.91;5123333;27;20071;-59
2021/08/14 23:27:06;;;;;;;11.35;5.85;;;;;;;18.57;73.37;99664.97;5114630;27;20130;-60
2021/08/14 23:29:32;;;;;;;11.45;6.72;;;;;;;18.57;72.71;99664.97;5109575;28;20035;-60
2021/08/14 23:31:58;;;;;;;12.10;6.20;;;;;;;18.56;72.95;99672.97;5130270;27;20035;-59
2021/08/14 23:34:24;;;;;;;12.68;6.00;;;;;;;18.48;73.15;99670.81;5130012;27;20043;-59
2021/08/14 23:36:50;;;;;;;15.52;6.72;;;;;;;18.44;73.91;99671.97;5107173;28;20133;-59
2021/08/14 23:39:16;;;;;;;12.90;6.90;;;;;;;18.24;74.44;99647.91;5114748;28;20043;-59
2021/08/14 23:41:41;;;;;;;13.85;6.60;;;;;;;18.36;74.66;99663.75;5095505;28;20044;-60
2021/08/14 23:44:07;;;;;;;11.77;6.80;;;;;;;18.36;74.67;99671.66;5072491;28;20093;-59
2021/08/14 23:46:33;;;;;;;13.10;7.38;;;;;;;18.36;74.62;99671.66;5109458;28;20054;-62
2021/08/14 23:48:59;;;;;;;12.98;7.05;;;;;;;18.17;75.08;99639.56;5107739;28;20045;-59
2021/08/14 23:51:25;;;;;;;13.82;6.90;;;;;;;18.32;75.81;99680.66;5088903;28;20122;-60
2021/08/14 23:53:54;;;;;;;15.75;7.00;;;;;;;18.29;76.53;99670.34;5089514;28;20044;-59
2021/08/14 23:56:20;;;;;;;;;;;;;;;18.26;76.83;99672.34;5063041;28;20538;-60
2021/08/14 23:58:46;;;;;;;14.48;7.40;;;;;;;18.14;76.64;99651.16;5104681;28;19916;-60
